sensor_id;sensor_type;location;lat;lon;timestamp;temperature;humidity
15554;DHT22;7878;44.632;10.942;2023-10-19T00:01:07;14.00;99.90
15554;DHT22;7878;44.632;10.942;2023-10-19T00:03:34;14.00;99.90
15554;DHT22;7878;44.632;10.942;2023-10-19T00:06:00;14.10;99.90
15554;DHT22;7878;44.632;10.942;2023-10-19T00:08:26;14.10;99.90
15554;DHT22;7878;44.632;10.942;2023-10-19T00:11:02;14.10;99.90
15554;DHT22;7878;44.632;10.942;2023-10-19T00:13:35;14.00;99.90
15554;DHT22;7878;44.632;10.942;2023-10-19T00:16:01;14.10;99.90
15554;DHT22;7878;44.632;10.942;2023-10-19T00:18:27;14.10;99.90
15554;DHT22;7878;44.632;10.942;2023-10-19T00:20:56;14.10;99.90
15554;DHT22;7878;44.632;10.942;2023-10-19T00:23:24;14.10;99.90
15554;DHT22;7878;44.632;10.942;2023-10-19T00:25:55;14.00;99.90
15554;DHT22;7878;44.632;10.942;2023-10-19T00:28:21;14.10;99.90
15554;DHT22;7878;44.632;10.942;2023-10-19T00:30:48;14.10;99.90
15554;DHT22;7878;44.632;10.942;2023-10-19T00:33:17;14.10;99.90
15554;DHT22;7878;44.632;10.942;2023-10-19T00:35:54;14.10;99.90
15554;DHT22;7878;44.632;10.942;2023-10-19T00:38:26;14.10;99.90
15554;DHT22;7878;44.632;10.942;2023-10-19T00:40:54;14.10;99.90
15554;DHT22;7878;44.632;10.942;2023-10-19T00:43:31;14.10;99.90
15554;DHT22;7878;44.632;10.942;2023-10-19T00:46:14;14.10;99.90
15554;DHT22;7878;44.632;10.942;2023-10-19T00:48:57;14.10;99.90
15554;DHT22;7878;44.632;10.942;2023-10-19T00:51:35;14.10;99.90
15554;DHT22;7878;44.632;10.942;2023-10-19T00:54:34;14.10;99.90
15554;DHT22;7878;44.632;10.942;2023-10-19T00:57:03;14.00;99.90
15554;DHT22;7878;44.632;10.942;2023-10-19T00:59:32;14.00;99.90
15554;DHT22;7878;44.632;10.942;2023-10-19T01:02:04;14.00;99.90
15554;DHT22;7878;44.632;10.942;2023-10-19T01:04:48;14.00;99.90
15554;DHT22;7878;44.632;10.942;2023-10-19T01:07:33;14.00;99.90
15554;DHT22;7878;44.632;10.942;2023-10-19T01:10:04;14.00;99.90
15554;DHT22;7878;44.632;10.942;2023-10-19T01:12:34;14.00;99.90
15554;DHT22;7878;44.632;10.942;2023-10-19T01:15:12;14.00;99.90
15554;DHT22;7878;44.632;10.942;2023-10-19T01:17:38;14.00;99.90
15554;DHT22;7878;44.632;10.942;2023-10-19T01:20:16;14.00;99.90
15554;DHT22;7878;44.632;10.942;2023-10-19T01:23:11;14.00;99.90
15554;DHT22;7878;44.632;10.942;2023-10-19T01:25:52;14.00;99.90
15554;DHT22;7878;44.632;10.942;2023-10-19T01:28:34;14.00;99.90
15554;DHT22;7878;44.632;10.942;2023-10-19T01:31:09;14.00;99.90
15554;DHT22;7878;44.632;10.942;2023-10-19T01:33:43;13.90;99.90
15554;DHT22;7878;44.632;10.942;2023-10-19T01:36:10;13.90;99.90
15554;DHT22;7878;44.632;10.942;2023-10-19T01:38:36;13.80;99.90
15554;DHT22;7878;44.632;10.942;2023-10-19T01:41:03;13.80;99.90
15554;DHT22;7878;44.632;10.942;2023-10-19T01:43:49;13.80;99.90
15554;DHT22;7878;44.632;10.942;2023-10-19T01:46:17;13.70;99.90
15554;DHT22;7878;44.632;10.942;2023-10-19T01:48:51;13.70;99.90
15554;DHT22;7878;44.632;10.942;2023-10-19T01:51:21;13.80;99.90
15554;DHT22;7878;44.632;10.942;2023-10-19T01:53:48;13.80;99.90
15554;DHT22;7878;44.632;10.942;2023-10-19T01:56:15;13.80;99.90
15554;DHT22;7878;44.632;10.942;2023-10-19T01:58:46;13.80;99.90
15554;DHT22;7878;44.632;10.942;2023-10-19T02:01:13;13.80;99.90
15554;DHT22;7878;44.632;10.942;2023-10-19T02:03:43;13.90;99.90
15554;DHT22;7878;44.632;10.942;2023-10-19T02:06:13;13.90;99.90
15554;DHT22;7878;44.632;10.942;2023-10-19T02:08:50;13.70;99.90
15554;DHT22;7878;44.632;10.942;2023-10-19T02:11:23;13.80;99.90
15554;DHT22;7878;44.632;10.942;2023-10-19T02:13:51;13.80;99.90
15554;DHT22;7878;44.632;10.942;2023-10-19T02:16:17;13.80;99.90
15554;DHT22;7878;44.632;10.942;2023-10-19T02:18:49;13.80;99.90
15554;DHT22;7878;44.632;10.942;2023-10-19T02:21:15;13.80;99.90
15554;DHT22;7878;44.632;10.942;2023-10-19T02:23:47;13.70;99.90
15554;DHT22;7878;44.632;10.942;2023-10-19T02:26:19;13.70;99.90
15554;DHT22;7878;44.632;10.942;2023-10-19T02:28:46;13.70;99.90
15554;DHT22;7878;44.632;10.942;2023-10-19T02:31:12;13.80;99.90
15554;DHT22;7878;44.632;10.942;2023-10-19T02:33:45;13.80;99.90
15554;DHT22;7878;44.632;10.942;2023-10-19T02:36:14;13.80;99.90
15554;DHT22;7878;44.632;10.942;2023-10-19T02:38:42;13.80;99.90
15554;DHT22;7878;44.632;10.942;2023-10-19T02:41:17;13.80;99.90
15554;DHT22;7878;44.632;10.942;2023-10-19T02:43:45;13.80;99.90
15554;DHT22;7878;44.632;10.942;2023-10-19T02:46:26;13.90;99.90
15554;DHT22;7878;44.632;10.942;2023-10-19T02:48:52;13.90;99.90
15554;DHT22;7878;44.632;10.942;2023-10-19T02:51:18;13.90;99.90
15554;DHT22;7878;44.632;10.942;2023-10-19T02:53:44;13.90;99.90
15554;DHT22;7878;44.632;10.942;2023-10-19T02:56:15;13.90;99.90
15554;DHT22;7878;44.632;10.942;2023-10-19T02:58:46;13.90;99.90
15554;DHT22;7878;44.632;10.942;2023-10-19T03:01:19;13.80;99.90
15554;DHT22;7878;44.632;10.942;2023-10-19T03:03:48;13.70;99.90
15554;DHT22;7878;44.632;10.942;2023-10-19T03:06:17;13.70;99.90
15554;DHT22;7878;44.632;10.942;2023-10-19T03:08:45;13.70;99.90
15554;DHT22;7878;44.632;10.942;2023-10-19T03:11:12;13.70;99.90
15554;DHT22;7878;44.632;10.942;2023-10-19T03:13:39;13.70;99.90
15554;DHT22;7878;44.632;10.942;2023-10-19T03:16:07;13.70;99.90
15554;DHT22;7878;44.632;10.942;2023-10-19T03:18:35;13.70;99.90
15554;DHT22;7878;44.632;10.942;2023-10-19T03:21:02;13.80;99.90
15554;DHT22;7878;44.632;10.942;2023-10-19T03:23:28;13.80;99.90
15554;DHT22;7878;44.632;10.942;2023-10-19T03:25:57;13.80;99.90
15554;DHT22;7878;44.632;10.942;2023-10-19T03:28:41;13.80;99.90
15554;DHT22;7878;44.632;10.942;2023-10-19T03:31:07;13.80;99.90
15554;DHT22;7878;44.632;10.942;2023-10-19T03:33:33;13.80;99.90
15554;DHT22;7878;44.632;10.942;2023-10-19T03:36:02;13.90;99.90
15554;DHT22;7878;44.632;10.942;2023-10-19T03:38:30;13.90;99.90
15554;DHT22;7878;44.632;10.942;2023-10-19T03:40:59;13.90;99.90
15554;DHT22;7878;44.632;10.942;2023-10-19T03:43:32;13.90;99.90
15554;DHT22;7878;44.632;10.942;2023-10-19T03:45:58;13.90;99.90
15554;DHT22;7878;44.632;10.942;2023-10-19T03:48:29;13.90;99.90
15554;DHT22;7878;44.632;10.942;2023-10-19T03:51:01;13.90;99.90
15554;DHT22;7878;44.632;10.942;2023-10-19T03:53:28;13.90;99.90
15554;DHT22;7878;44.632;10.942;2023-10-19T03:55:54;13.90;99.90
15554;DHT22;7878;44.632;10.942;2023-10-19T03:58:20;13.80;99.90
15554;DHT22;7878;44.632;10.942;2023-10-19T04:00:47;13.90;99.90
15554;DHT22;7878;44.632;10.942;2023-10-19T04:03:15;13.80;99.90
15554;DHT22;7878;44.632;10.942;2023-10-19T04:05:43;13.90;99.90
15554;DHT22;7878;44.632;10.942;2023-10-19T04:08:12;13.90;99.90
15554;DHT22;7878;44.632;10.942;2023-10-19T04:10:40;13.90;99.90
15554;DHT22;7878;44.632;10.942;2023-10-19T04:13:11;13.90;99.90
15554;DHT22;7878;44.632;10.942;2023-10-19T04:15:37;14.00;99.90
15554;DHT22;7878;44.632;10.942;2023-10-19T04:18:03;13.90;99.90
15554;DHT22;7878;44.632;10.942;2023-10-19T04:20:37;13.90;99.90
15554;DHT22;7878;44.632;10.942;2023-10-19T04:23:18;13.90;99.90
15554;DHT22;7878;44.632;10.942;2023-10-19T04:25:46;13.90;99.90
15554;DHT22;7878;44.632;10.942;2023-10-19T04:28:12;13.90;99.90
15554;DHT22;7878;44.632;10.942;2023-10-19T04:30:40;13.90;99.90
15554;DHT22;7878;44.632;10.942;2023-10-19T04:33:06;13.90;99.90
15554;DHT22;7878;44.632;10.942;2023-10-19T04:35:36;13.90;99.90
15554;DHT22;7878;44.632;10.942;2023-10-19T04:38:04;13.90;99.90
15554;DHT22;7878;44.632;10.942;2023-10-19T04:40:31;13.90;99.90
15554;DHT22;7878;44.632;10.942;2023-10-19T04:42:57;13.90;99.90
15554;DHT22;7878;44.632;10.942;2023-10-19T04:45:23;14.00;99.90
15554;DHT22;7878;44.632;10.942;2023-10-19T04:47:52;14.00;99.90
15554;DHT22;7878;44.632;10.942;2023-10-19T04:50:18;14.00;99.90
15554;DHT22;7878;44.632;10.942;2023-10-19T04:52:44;13.90;99.90
15554;DHT22;7878;44.632;10.942;2023-10-19T04:55:10;14.00;99.90
15554;DHT22;7878;44.632;10.942;2023-10-19T04:57:35;14.00;99.90
15554;DHT22;7878;44.632;10.942;2023-10-19T05:00:01;14.00;99.90
15554;DHT22;7878;44.632;10.942;2023-10-19T05:02:28;14.00;99.90
15554;DHT22;7878;44.632;10.942;2023-10-19T05:04:55;14.00;99.90
15554;DHT22;7878;44.632;10.942;2023-10-19T05:07:20;14.00;99.90
15554;DHT22;7878;44.632;10.942;2023-10-19T05:09:46;14.00;99.90
15554;DHT22;7878;44.632;10.942;2023-10-19T05:12:13;14.00;99.90
15554;DHT22;7878;44.632;10.942;2023-10-19T05:14:40;14.00;99.90
15554;DHT22;7878;44.632;10.942;2023-10-19T05:17:08;14.00;99.90
15554;DHT22;7878;44.632;10.942;2023-10-19T05:19:38;14.00;99.90
15554;DHT22;7878;44.632;10.942;2023-10-19T05:22:05;14.00;99.90
15554;DHT22;7878;44.632;10.942;2023-10-19T05:24:32;14.00;99.90
15554;DHT22;7878;44.632;10.942;2023-10-19T05:26:58;14.00;99.90
15554;DHT22;7878;44.632;10.942;2023-10-19T05:29:23;14.00;99.90
15554;DHT22;7878;44.632;10.942;2023-10-19T05:31:51;13.90;99.90
15554;DHT22;7878;44.632;10.942;2023-10-19T05:34:21;13.90;99.90
15554;DHT22;7878;44.632;10.942;2023-10-19T05:36:47;13.90;99.90
15554;DHT22;7878;44.632;10.942;2023-10-19T05:39:17;14.00;99.90
15554;DHT22;7878;44.632;10.942;2023-10-19T05:41:43;14.00;99.90
15554;DHT22;7878;44.632;10.942;2023-10-19T05:44:09;14.00;99.90
15554;DHT22;7878;44.632;10.942;2023-10-19T05:46:35;14.00;99.90
15554;DHT22;7878;44.632;10.942;2023-10-19T05:49:02;14.00;99.90
15554;DHT22;7878;44.632;10.942;2023-10-19T05:51:30;14.00;99.90
15554;DHT22;7878;44.632;10.942;2023-10-19T05:53:55;14.00;99.90
15554;DHT22;7878;44.632;10.942;2023-10-19T05:56:27;14.00;99.90
15554;DHT22;7878;44.632;10.942;2023-10-19T05:58:53;14.00;99.90
15554;DHT22;7878;44.632;10.942;2023-10-19T06:01:19;14.00;99.90
15554;DHT22;7878;44.632;10.942;2023-10-19T06:03:45;14.00;99.90
15554;DHT22;7878;44.632;10.942;2023-10-19T06:06:11;14.00;99.90
15554;DHT22;7878;44.632;10.942;2023-10-19T06:08:37;14.00;99.90
15554;DHT22;7878;44.632;10.942;2023-10-19T06:11:02;14.00;99.90
15554;DHT22;7878;44.632;10.942;2023-10-19T06:13:29;13.90;99.90
15554;DHT22;7878;44.632;10.942;2023-10-19T06:15:55;14.00;99.90
15554;DHT22;7878;44.632;10.942;2023-10-19T06:18:21;14.00;99.90
15554;DHT22;7878;44.632;10.942;2023-10-19T06:20:46;14.00;99.90
15554;DHT22;7878;44.632;10.942;2023-10-19T06:23:13;14.00;99.90
15554;DHT22;7878;44.632;10.942;2023-10-19T06:25:39;14.00;99.90
15554;DHT22;7878;44.632;10.942;2023-10-19T06:28:08;14.00;99.90
15554;DHT22;7878;44.632;10.942;2023-10-19T06:30:34;14.00;99.90
15554;DHT22;7878;44.632;10.942;2023-10-19T06:33:01;14.10;99.90
15554;DHT22;7878;44.632;10.942;2023-10-19T06:35:27;14.00;99.90
15554;DHT22;7878;44.632;10.942;2023-10-19T06:37:54;14.00;99.90
15554;DHT22;7878;44.632;10.942;2023-10-19T06:40:23;14.00;99.90
15554;DHT22;7878;44.632;10.942;2023-10-19T06:42:49;14.00;99.90
15554;DHT22;7878;44.632;10.942;2023-10-19T06:45:16;14.00;99.90
15554;DHT22;7878;44.632;10.942;2023-10-19T06:47:45;14.10;99.90
15554;DHT22;7878;44.632;10.942;2023-10-19T06:50:13;14.00;99.90
15554;DHT22;7878;44.632;10.942;2023-10-19T06:52:41;14.10;99.90
15554;DHT22;7878;44.632;10.942;2023-10-19T06:55:09;14.00;99.90
15554;DHT22;7878;44.632;10.942;2023-10-19T06:57:46;14.10;99.90
15554;DHT22;7878;44.632;10.942;2023-10-19T07:00:15;14.10;99.90
15554;DHT22;7878;44.632;10.942;2023-10-19T07:02:53;14.10;99.90
15554;DHT22;7878;44.632;10.942;2023-10-19T07:05:21;14.10;99.90
15554;DHT22;7878;44.632;10.942;2023-10-19T07:07:48;14.00;99.90
15554;DHT22;7878;44.632;10.942;2023-10-19T07:10:14;14.00;99.90
15554;DHT22;7878;44.632;10.942;2023-10-19T07:12:42;14.00;99.90
15554;DHT22;7878;44.632;10.942;2023-10-19T07:15:08;14.10;99.90
15554;DHT22;7878;44.632;10.942;2023-10-19T07:17:35;14.00;99.90
15554;DHT22;7878;44.632;10.942;2023-10-19T07:20:04;14.00;99.90
15554;DHT22;7878;44.632;10.942;2023-10-19T07:22:32;14.00;99.90
15554;DHT22;7878;44.632;10.942;2023-10-19T07:24:58;14.00;99.90
15554;DHT22;7878;44.632;10.942;2023-10-19T07:27:23;14.00;99.90
15554;DHT22;7878;44.632;10.942;2023-10-19T07:29:53;14.00;99.90
15554;DHT22;7878;44.632;10.942;2023-10-19T07:32:18;14.10;99.90
15554;DHT22;7878;44.632;10.942;2023-10-19T07:34:44;14.10;99.90
15554;DHT22;7878;44.632;10.942;2023-10-19T07:37:10;14.10;99.90
15554;DHT22;7878;44.632;10.942;2023-10-19T07:39:45;14.10;99.90
15554;DHT22;7878;44.632;10.942;2023-10-19T07:42:11;14.20;99.90
15554;DHT22;7878;44.632;10.942;2023-10-19T07:44:37;14.20;99.90
15554;DHT22;7878;44.632;10.942;2023-10-19T07:47:02;14.20;99.90
15554;DHT22;7878;44.632;10.942;2023-10-19T07:49:28;14.20;99.90
15554;DHT22;7878;44.632;10.942;2023-10-19T07:51:54;14.20;99.90
15554;DHT22;7878;44.632;10.942;2023-10-19T07:54:20;14.10;99.90
15554;DHT22;7878;44.632;10.942;2023-10-19T07:56:46;14.10;99.90
15554;DHT22;7878;44.632;10.942;2023-10-19T07:59:12;14.10;99.90
15554;DHT22;7878;44.632;10.942;2023-10-19T08:01:39;14.10;99.90
15554;DHT22;7878;44.632;10.942;2023-10-19T08:04:05;14.10;99.90
15554;DHT22;7878;44.632;10.942;2023-10-19T08:06:31;14.10;99.90
15554;DHT22;7878;44.632;10.942;2023-10-19T08:08:57;14.10;99.90
15554;DHT22;7878;44.632;10.942;2023-10-19T08:11:23;14.20;99.90
15554;DHT22;7878;44.632;10.942;2023-10-19T08:13:50;14.20;99.90
15554;DHT22;7878;44.632;10.942;2023-10-19T08:16:15;14.20;99.90
15554;DHT22;7878;44.632;10.942;2023-10-19T08:18:42;14.20;99.90
15554;DHT22;7878;44.632;10.942;2023-10-19T08:21:08;14.20;99.90
15554;DHT22;7878;44.632;10.942;2023-10-19T08:23:34;14.20;99.90
15554;DHT22;7878;44.632;10.942;2023-10-19T08:26:00;14.30;99.90
15554;DHT22;7878;44.632;10.942;2023-10-19T08:28:26;14.30;99.90
15554;DHT22;7878;44.632;10.942;2023-10-19T08:30:52;14.20;99.90
15554;DHT22;7878;44.632;10.942;2023-10-19T08:33:26;14.30;99.90
15554;DHT22;7878;44.632;10.942;2023-10-19T08:35:53;14.30;99.90
15554;DHT22;7878;44.632;10.942;2023-10-19T08:38:28;14.30;99.90
15554;DHT22;7878;44.632;10.942;2023-10-19T08:40:54;14.30;99.90
15554;DHT22;7878;44.632;10.942;2023-10-19T08:43:20;14.30;99.90
15554;DHT22;7878;44.632;10.942;2023-10-19T08:45:47;14.40;99.90
15554;DHT22;7878;44.632;10.942;2023-10-19T08:48:13;14.40;99.90
15554;DHT22;7878;44.632;10.942;2023-10-19T08:50:40;14.30;99.90
15554;DHT22;7878;44.632;10.942;2023-10-19T08:53:07;14.30;99.90
15554;DHT22;7878;44.632;10.942;2023-10-19T08:55:34;14.30;99.90
15554;DHT22;7878;44.632;10.942;2023-10-19T08:58:00;14.40;99.90
15554;DHT22;7878;44.632;10.942;2023-10-19T09:00:26;14.30;99.90
15554;DHT22;7878;44.632;10.942;2023-10-19T09:02:53;14.30;99.90
15554;DHT22;7878;44.632;10.942;2023-10-19T09:05:20;14.40;99.90
15554;DHT22;7878;44.632;10.942;2023-10-19T09:07:51;14.40;99.90
15554;DHT22;7878;44.632;10.942;2023-10-19T09:10:27;14.30;99.90
15554;DHT22;7878;44.632;10.942;2023-10-19T09:13:06;14.40;99.90
15554;DHT22;7878;44.632;10.942;2023-10-19T09:15:36;14.40;99.90
15554;DHT22;7878;44.632;10.942;2023-10-19T09:18:19;14.50;99.90
15554;DHT22;7878;44.632;10.942;2023-10-19T09:20:47;14.50;99.90
15554;DHT22;7878;44.632;10.942;2023-10-19T09:23:23;14.50;99.90
15554;DHT22;7878;44.632;10.942;2023-10-19T09:25:49;14.50;99.90
15554;DHT22;7878;44.632;10.942;2023-10-19T09:28:15;14.50;99.90
15554;DHT22;7878;44.632;10.942;2023-10-19T09:30:43;14.60;99.90
15554;DHT22;7878;44.632;10.942;2023-10-19T09:33:09;14.60;99.90
15554;DHT22;7878;44.632;10.942;2023-10-19T09:35:35;14.60;99.90
15554;DHT22;7878;44.632;10.942;2023-10-19T09:38:03;14.60;99.90
15554;DHT22;7878;44.632;10.942;2023-10-19T09:40:32;14.70;99.90
15554;DHT22;7878;44.632;10.942;2023-10-19T09:42:58;14.70;99.90
15554;DHT22;7878;44.632;10.942;2023-10-19T09:45:30;14.80;99.90
15554;DHT22;7878;44.632;10.942;2023-10-19T09:48:00;14.80;99.90
15554;DHT22;7878;44.632;10.942;2023-10-19T09:50:27;14.90;99.90
15554;DHT22;7878;44.632;10.942;2023-10-19T09:52:53;14.90;99.90
15554;DHT22;7878;44.632;10.942;2023-10-19T09:55:33;14.90;99.90
15554;DHT22;7878;44.632;10.942;2023-10-19T09:58:09;14.90;99.90
15554;DHT22;7878;44.632;10.942;2023-10-19T10:00:37;15.00;99.90
15554;DHT22;7878;44.632;10.942;2023-10-19T10:03:04;15.00;99.90
15554;DHT22;7878;44.632;10.942;2023-10-19T10:10:47;15.20;99.90
15554;DHT22;7878;44.632;10.942;2023-10-19T10:15:58;15.10;99.90
15554;DHT22;7878;44.632;10.942;2023-10-19T10:18:24;15.10;99.90
15554;DHT22;7878;44.632;10.942;2023-10-19T10:23:31;15.10;99.90
15554;DHT22;7878;44.632;10.942;2023-10-19T10:26:00;15.10;99.90
15554;DHT22;7878;44.632;10.942;2023-10-19T10:28:26;15.10;99.90
15554;DHT22;7878;44.632;10.942;2023-10-19T10:31:12;15.10;99.90
15554;DHT22;7878;44.632;10.942;2023-10-19T10:36:15;15.00;99.90
15554;DHT22;7878;44.632;10.942;2023-10-19T10:38:43;15.10;99.90
15554;DHT22;7878;44.632;10.942;2023-10-19T10:41:09;15.10;99.90
15554;DHT22;7878;44.632;10.942;2023-10-19T10:43:54;15.00;99.90
15554;DHT22;7878;44.632;10.942;2023-10-19T10:46:24;15.00;99.90
15554;DHT22;7878;44.632;10.942;2023-10-19T10:48:51;14.90;99.90
15554;DHT22;7878;44.632;10.942;2023-10-19T10:51:18;14.90;99.90
15554;DHT22;7878;44.632;10.942;2023-10-19T10:53:50;14.90;99.90
15554;DHT22;7878;44.632;10.942;2023-10-19T10:56:18;15.00;99.90
15554;DHT22;7878;44.632;10.942;2023-10-19T10:58:44;14.90;99.90
15554;DHT22;7878;44.632;10.942;2023-10-19T11:01:10;15.00;99.90
15554;DHT22;7878;44.632;10.942;2023-10-19T11:03:37;15.00;99.90
15554;DHT22;7878;44.632;10.942;2023-10-19T11:06:07;15.00;99.90
15554;DHT22;7878;44.632;10.942;2023-10-19T11:08:36;15.00;99.90
15554;DHT22;7878;44.632;10.942;2023-10-19T11:11:04;15.00;99.90
15554;DHT22;7878;44.632;10.942;2023-10-19T11:13:30;15.00;99.90
15554;DHT22;7878;44.632;10.942;2023-10-19T11:15:58;14.90;99.90
15554;DHT22;7878;44.632;10.942;2023-10-19T11:18:37;14.90;99.90
15554;DHT22;7878;44.632;10.942;2023-10-19T11:21:09;14.90;99.90
15554;DHT22;7878;44.632;10.942;2023-10-19T11:23:36;14.90;99.90
15554;DHT22;7878;44.632;10.942;2023-10-19T11:26:02;14.90;99.90
15554;DHT22;7878;44.632;10.942;2023-10-19T11:28:29;15.00;99.90
15554;DHT22;7878;44.632;10.942;2023-10-19T11:31:17;15.00;99.90
15554;DHT22;7878;44.632;10.942;2023-10-19T11:33:45;15.00;99.90
15554;DHT22;7878;44.632;10.942;2023-10-19T11:36:14;15.00;99.90
15554;DHT22;7878;44.632;10.942;2023-10-19T11:38:44;15.00;99.90
15554;DHT22;7878;44.632;10.942;2023-10-19T11:41:11;15.00;99.90
15554;DHT22;7878;44.632;10.942;2023-10-19T11:43:41;15.00;99.90
15554;DHT22;7878;44.632;10.942;2023-10-19T11:46:08;14.90;99.90
15554;DHT22;7878;44.632;10.942;2023-10-19T11:48:36;15.00;99.90
15554;DHT22;7878;44.632;10.942;2023-10-19T11:51:05;15.00;99.90
15554;DHT22;7878;44.632;10.942;2023-10-19T11:53:37;15.00;99.90
15554;DHT22;7878;44.632;10.942;2023-10-19T11:56:05;15.00;99.90
15554;DHT22;7878;44.632;10.942;2023-10-19T11:58:34;15.00;99.90
15554;DHT22;7878;44.632;10.942;2023-10-19T12:01:01;15.00;99.90
15554;DHT22;7878;44.632;10.942;2023-10-19T12:03:34;15.10;99.90
15554;DHT22;7878;44.632;10.942;2023-10-19T12:06:03;15.00;99.90
15554;DHT22;7878;44.632;10.942;2023-10-19T12:08:32;15.10;99.90
15554;DHT22;7878;44.632;10.942;2023-10-19T12:10:58;15.00;99.90
15554;DHT22;7878;44.632;10.942;2023-10-19T12:13:24;15.00;99.90
15554;DHT22;7878;44.632;10.942;2023-10-19T12:15:50;15.00;99.90
15554;DHT22;7878;44.632;10.942;2023-10-19T12:18:20;15.00;99.90
15554;DHT22;7878;44.632;10.942;2023-10-19T12:20:47;15.10;99.90
15554;DHT22;7878;44.632;10.942;2023-10-19T12:23:13;15.10;99.90
15554;DHT22;7878;44.632;10.942;2023-10-19T12:25:39;15.10;99.90
15554;DHT22;7878;44.632;10.942;2023-10-19T12:28:07;15.00;99.90
15554;DHT22;7878;44.632;10.942;2023-10-19T12:30:33;15.10;99.90
15554;DHT22;7878;44.632;10.942;2023-10-19T12:33:03;15.00;99.90
15554;DHT22;7878;44.632;10.942;2023-10-19T12:35:33;14.90;99.90
15554;DHT22;7878;44.632;10.942;2023-10-19T12:38:19;14.90;99.90
15554;DHT22;7878;44.632;10.942;2023-10-19T12:40:50;14.90;99.90
15554;DHT22;7878;44.632;10.942;2023-10-19T12:43:20;14.90;99.90
15554;DHT22;7878;44.632;10.942;2023-10-19T12:45:48;15.00;99.90
15554;DHT22;7878;44.632;10.942;2023-10-19T12:48:21;15.00;99.90
15554;DHT22;7878;44.632;10.942;2023-10-19T12:50:47;15.10;99.90
15554;DHT22;7878;44.632;10.942;2023-10-19T12:53:13;15.10;99.90
15554;DHT22;7878;44.632;10.942;2023-10-19T12:55:39;15.10;99.90
15554;DHT22;7878;44.632;10.942;2023-10-19T12:58:06;15.10;99.90
15554;DHT22;7878;44.632;10.942;2023-10-19T13:00:36;15.00;99.90
15554;DHT22;7878;44.632;10.942;2023-10-19T13:03:05;15.00;99.90
15554;DHT22;7878;44.632;10.942;2023-10-19T13:05:35;15.00;99.90
15554;DHT22;7878;44.632;10.942;2023-10-19T13:08:01;15.00;99.90
15554;DHT22;7878;44.632;10.942;2023-10-19T13:10:31;15.00;99.90
15554;DHT22;7878;44.632;10.942;2023-10-19T13:13:08;15.00;99.90
15554;DHT22;7878;44.632;10.942;2023-10-19T13:15:37;15.10;99.90
15554;DHT22;7878;44.632;10.942;2023-10-19T13:18:05;15.00;99.90
15554;DHT22;7878;44.632;10.942;2023-10-19T13:20:35;15.00;99.90
15554;DHT22;7878;44.632;10.942;2023-10-19T13:23:05;15.10;99.90
15554;DHT22;7878;44.632;10.942;2023-10-19T13:25:38;15.10;99.90
15554;DHT22;7878;44.632;10.942;2023-10-19T13:28:08;15.10;99.90
15554;DHT22;7878;44.632;10.942;2023-10-19T13:30:42;15.10;99.90
15554;DHT22;7878;44.632;10.942;2023-10-19T13:33:09;15.10;99.90
15554;DHT22;7878;44.632;10.942;2023-10-19T13:35:38;15.10;99.90
15554;DHT22;7878;44.632;10.942;2023-10-19T13:38:05;15.10;99.90
15554;DHT22;7878;44.632;10.942;2023-10-19T13:40:31;15.10;99.90
15554;DHT22;7878;44.632;10.942;2023-10-19T13:43:00;15.10;99.90
15554;DHT22;7878;44.632;10.942;2023-10-19T13:45:26;15.00;99.90
15554;DHT22;7878;44.632;10.942;2023-10-19T13:47:52;15.10;99.90
15554;DHT22;7878;44.632;10.942;2023-10-19T13:50:24;15.10;99.90
15554;DHT22;7878;44.632;10.942;2023-10-19T13:52:53;15.10;99.90
15554;DHT22;7878;44.632;10.942;2023-10-19T13:55:20;15.10;99.90
15554;DHT22;7878;44.632;10.942;2023-10-19T13:57:47;15.10;99.90
15554;DHT22;7878;44.632;10.942;2023-10-19T14:00:14;15.20;99.90
15554;DHT22;7878;44.632;10.942;2023-10-19T14:02:49;15.30;99.90
15554;DHT22;7878;44.632;10.942;2023-10-19T14:05:15;15.30;99.90
15554;DHT22;7878;44.632;10.942;2023-10-19T14:07:41;15.40;99.90
15554;DHT22;7878;44.632;10.942;2023-10-19T14:10:08;15.40;99.90
15554;DHT22;7878;44.632;10.942;2023-10-19T14:12:37;15.30;99.90
15554;DHT22;7878;44.632;10.942;2023-10-19T14:15:03;15.30;99.90
15554;DHT22;7878;44.632;10.942;2023-10-19T14:17:29;15.30;99.90
15554;DHT22;7878;44.632;10.942;2023-10-19T14:19:55;15.30;99.90
15554;DHT22;7878;44.632;10.942;2023-10-19T14:22:21;15.30;99.90
15554;DHT22;7878;44.632;10.942;2023-10-19T14:24:46;15.30;99.90
15554;DHT22;7878;44.632;10.942;2023-10-19T14:27:12;15.30;99.90
15554;DHT22;7878;44.632;10.942;2023-10-19T14:29:39;15.30;99.90
15554;DHT22;7878;44.632;10.942;2023-10-19T14:32:04;15.30;99.90
15554;DHT22;7878;44.632;10.942;2023-10-19T14:34:30;15.30;99.90
15554;DHT22;7878;44.632;10.942;2023-10-19T14:36:56;15.30;99.90
15554;DHT22;7878;44.632;10.942;2023-10-19T14:39:22;15.30;99.90
15554;DHT22;7878;44.632;10.942;2023-10-19T14:41:50;15.30;99.90
15554;DHT22;7878;44.632;10.942;2023-10-19T14:44:15;15.30;99.90
15554;DHT22;7878;44.632;10.942;2023-10-19T14:46:41;15.40;99.90
15554;DHT22;7878;44.632;10.942;2023-10-19T14:49:07;15.40;99.90
15554;DHT22;7878;44.632;10.942;2023-10-19T14:51:32;15.40;99.90
15554;DHT22;7878;44.632;10.942;2023-10-19T14:53:58;15.40;99.90
15554;DHT22;7878;44.632;10.942;2023-10-19T14:56:23;15.40;99.90
15554;DHT22;7878;44.632;10.942;2023-10-19T14:58:49;15.40;99.90
15554;DHT22;7878;44.632;10.942;2023-10-19T15:01:22;15.40;99.90
15554;DHT22;7878;44.632;10.942;2023-10-19T15:03:48;15.40;99.90
15554;DHT22;7878;44.632;10.942;2023-10-19T15:06:14;15.30;99.90
15554;DHT22;7878;44.632;10.942;2023-10-19T15:08:42;15.30;99.90
15554;DHT22;7878;44.632;10.942;2023-10-19T15:11:08;15.30;99.90
15554;DHT22;7878;44.632;10.942;2023-10-19T15:13:34;15.30;99.90
15554;DHT22;7878;44.632;10.942;2023-10-19T15:16:07;15.30;99.90
15554;DHT22;7878;44.632;10.942;2023-10-19T15:18:34;15.20;99.90
15554;DHT22;7878;44.632;10.942;2023-10-19T15:21:08;15.20;99.90
15554;DHT22;7878;44.632;10.942;2023-10-19T15:23:34;15.20;99.90
15554;DHT22;7878;44.632;10.942;2023-10-19T15:26:00;15.20;99.90
15554;DHT22;7878;44.632;10.942;2023-10-19T15:28:27;15.10;99.90
15554;DHT22;7878;44.632;10.942;2023-10-19T15:30:57;15.10;99.90
15554;DHT22;7878;44.632;10.942;2023-10-19T15:33:24;15.10;99.90
15554;DHT22;7878;44.632;10.942;2023-10-19T15:35:52;15.20;99.90
15554;DHT22;7878;44.632;10.942;2023-10-19T15:38:19;15.20;99.90
15554;DHT22;7878;44.632;10.942;2023-10-19T15:40:45;15.20;99.90
15554;DHT22;7878;44.632;10.942;2023-10-19T15:43:11;15.20;99.90
15554;DHT22;7878;44.632;10.942;2023-10-19T15:45:36;15.20;99.90
15554;DHT22;7878;44.632;10.942;2023-10-19T15:48:05;15.20;99.90
15554;DHT22;7878;44.632;10.942;2023-10-19T15:50:31;15.20;99.90
15554;DHT22;7878;44.632;10.942;2023-10-19T15:53:00;15.20;99.90